sensor_id;sensor_type;location;lat;lon;timestamp;P1;durP1;ratioP1;P2;durP2;ratioP2
56161;SDS011;42045;52.986;6.014;2023-03-13T00:00:15;40.90;;;8.88;;
56161;SDS011;42045;52.986;6.014;2023-03-13T00:02:42;40.45;;;8.05;;
56161;SDS011;42045;52.986;6.014;2023-03-13T00:05:11;40.55;;;9.27;;
56161;SDS011;42045;52.986;6.014;2023-03-13T00:07:37;34.58;;;8.02;;
56161;SDS011;42045;52.986;6.014;2023-03-13T00:10:03;33.78;;;8.05;;
56161;SDS011;42045;52.986;6.014;2023-03-13T00:12:29;38.10;;;8.20;;
56161;SDS011;42045;52.986;6.014;2023-03-13T00:14:55;40.72;;;8.95;;
56161;SDS011;42045;52.986;6.014;2023-03-13T00:17:21;34.22;;;8.25;;
56161;SDS011;42045;52.986;6.014;2023-03-13T00:19:46;41.42;;;9.80;;
56161;SDS011;42045;52.986;6.014;2023-03-13T00:22:12;44.17;;;8.70;;
56161;SDS011;42045;52.986;6.014;2023-03-13T00:24:37;49.40;;;11.15;;
56161;SDS011;42045;52.986;6.014;2023-03-13T00:27:03;37.95;;;8.90;;
56161;SDS011;42045;52.986;6.014;2023-03-13T00:29:30;33.75;;;8.10;;
56161;SDS011;42045;52.986;6.014;2023-03-13T00:31:57;39.55;;;9.00;;
56161;SDS011;42045;52.986;6.014;2023-03-13T00:34:24;36.78;;;10.02;;
56161;SDS011;42045;52.986;6.014;2023-03-13T00:36:51;45.50;;;9.52;;
56161;SDS011;42045;52.986;6.014;2023-03-13T00:39:18;45.00;;;10.82;;
56161;SDS011;42045;52.986;6.014;2023-03-13T00:41:44;40.63;;;9.48;;
56161;SDS011;42045;52.986;6.014;2023-03-13T00:44:10;37.03;;;10.15;;
56161;SDS011;42045;52.986;6.014;2023-03-13T00:46:35;40.42;;;10.60;;
56161;SDS011;42045;52.986;6.014;2023-03-13T00:49:01;41.20;;;10.05;;
56161;SDS011;42045;52.986;6.014;2023-03-13T00:51:28;43.90;;;10.57;;
56161;SDS011;42045;52.986;6.014;2023-03-13T00:53:54;43.00;;;8.88;;
56161;SDS011;42045;52.986;6.014;2023-03-13T00:56:21;39.35;;;9.30;;
56161;SDS011;42045;52.986;6.014;2023-03-13T00:58:47;41.47;;;9.85;;
56161;SDS011;42045;52.986;6.014;2023-03-13T01:01:22;48.60;;;10.38;;
56161;SDS011;42045;52.986;6.014;2023-03-13T01:03:51;41.20;;;9.90;;
56161;SDS011;42045;52.986;6.014;2023-03-13T01:06:28;44.78;;;10.52;;
56161;SDS011;42045;52.986;6.014;2023-03-13T01:08:56;35.45;;;10.75;;
56161;SDS011;42045;52.986;6.014;2023-03-13T01:11:30;38.08;;;10.32;;
56161;SDS011;42045;52.986;6.014;2023-03-13T01:14:02;35.65;;;10.00;;
56161;SDS011;42045;52.986;6.014;2023-03-13T01:16:30;42.83;;;10.80;;
56161;SDS011;42045;52.986;6.014;2023-03-13T01:18:59;35.90;;;9.63;;
56161;SDS011;42045;52.986;6.014;2023-03-13T01:21:28;40.13;;;11.45;;
56161;SDS011;42045;52.986;6.014;2023-03-13T01:23:54;33.83;;;8.57;;
56161;SDS011;42045;52.986;6.014;2023-03-13T01:26:20;40.65;;;8.85;;
56161;SDS011;42045;52.986;6.014;2023-03-13T01:28:47;35.55;;;9.82;;
56161;SDS011;42045;52.986;6.014;2023-03-13T01:33:42;36.78;;;9.75;;
56161;SDS011;42045;52.986;6.014;2023-03-13T01:36:09;37.22;;;9.02;;
56161;SDS011;42045;52.986;6.014;2023-03-13T01:38:36;36.25;;;9.93;;
56161;SDS011;42045;52.986;6.014;2023-03-13T01:41:02;36.85;;;9.73;;
56161;SDS011;42045;52.986;6.014;2023-03-13T01:43:29;42.25;;;9.75;;
56161;SDS011;42045;52.986;6.014;2023-03-13T01:56:33;38.95;;;11.40;;
56161;SDS011;42045;52.986;6.014;2023-03-13T01:59:10;36.80;;;11.75;;
56161;SDS011;42045;52.986;6.014;2023-03-13T02:01:40;36.97;;;11.23;;
56161;SDS011;42045;52.986;6.014;2023-03-13T02:04:06;45.30;;;12.70;;
56161;SDS011;42045;52.986;6.014;2023-03-13T02:06:33;31.75;;;11.90;;
56161;SDS011;42045;52.986;6.014;2023-03-13T02:09:03;39.45;;;11.05;;
56161;SDS011;42045;52.986;6.014;2023-03-13T02:11:49;36.38;;;11.05;;
56161;SDS011;42045;52.986;6.014;2023-03-13T02:14:24;32.28;;;10.75;;
56161;SDS011;42045;52.986;6.014;2023-03-13T02:16:52;29.77;;;10.68;;
56161;SDS011;42045;52.986;6.014;2023-03-13T02:19:30;34.20;;;10.90;;
56161;SDS011;42045;52.986;6.014;2023-03-13T02:22:23;37.13;;;11.85;;
56161;SDS011;42045;52.986;6.014;2023-03-13T02:27:50;30.75;;;11.63;;
56161;SDS011;42045;52.986;6.014;2023-03-13T02:30:21;26.10;;;10.88;;
56161;SDS011;42045;52.986;6.014;2023-03-13T02:32:47;25.35;;;11.15;;
56161;SDS011;42045;52.986;6.014;2023-03-13T02:35:15;25.40;;;9.98;;
56161;SDS011;42045;52.986;6.014;2023-03-13T02:37:44;18.30;;;9.77;;
56161;SDS011;42045;52.986;6.014;2023-03-13T02:40:14;21.63;;;10.50;;
56161;SDS011;42045;52.986;6.014;2023-03-13T02:42:44;18.90;;;9.60;;
56161;SDS011;42045;52.986;6.014;2023-03-13T02:45:15;22.98;;;10.38;;
56161;SDS011;42045;52.986;6.014;2023-03-13T02:47:41;20.05;;;10.32;;
56161;SDS011;42045;52.986;6.014;2023-03-13T02:50:08;17.55;;;9.13;;
56161;SDS011;42045;52.986;6.014;2023-03-13T02:52:42;15.40;;;9.65;;
56161;SDS011;42045;52.986;6.014;2023-03-13T02:55:15;18.33;;;9.90;;
56161;SDS011;42045;52.986;6.014;2023-03-13T02:57:46;16.45;;;8.82;;
56161;SDS011;42045;52.986;6.014;2023-03-13T03:00:12;15.63;;;8.57;;
56161;SDS011;42045;52.986;6.014;2023-03-13T03:02:41;17.27;;;9.38;;
56161;SDS011;42045;52.986;6.014;2023-03-13T03:05:07;18.73;;;8.70;;
56161;SDS011;42045;52.986;6.014;2023-03-13T03:07:33;17.65;;;8.98;;
56161;SDS011;42045;52.986;6.014;2023-03-13T03:09:59;16.52;;;9.15;;
56161;SDS011;42045;52.986;6.014;2023-03-13T03:12:25;14.80;;;8.90;;
56161;SDS011;42045;52.986;6.014;2023-03-13T03:14:50;15.50;;;8.88;;
56161;SDS011;42045;52.986;6.014;2023-03-13T03:17:16;14.73;;;9.73;;
56161;SDS011;42045;52.986;6.014;2023-03-13T03:19:41;15.00;;;9.60;;
56161;SDS011;42045;52.986;6.014;2023-03-13T03:22:07;19.00;;;11.27;;
56161;SDS011;42045;52.986;6.014;2023-03-13T03:24:33;12.00;;;9.75;;
56161;SDS011;42045;52.986;6.014;2023-03-13T03:26:58;15.20;;;9.07;;
56161;SDS011;42045;52.986;6.014;2023-03-13T03:29:24;15.18;;;9.07;;
56161;SDS011;42045;52.986;6.014;2023-03-13T03:31:51;13.05;;;9.75;;
56161;SDS011;42045;52.986;6.014;2023-03-13T03:34:17;15.38;;;9.60;;
56161;SDS011;42045;52.986;6.014;2023-03-13T03:36:43;16.77;;;9.95;;
56161;SDS011;42045;52.986;6.014;2023-03-13T03:39:08;15.20;;;11.20;;
56161;SDS011;42045;52.986;6.014;2023-03-13T03:41:34;16.17;;;11.18;;
56161;SDS011;42045;52.986;6.014;2023-03-13T03:44:01;16.23;;;10.27;;
56161;SDS011;42045;52.986;6.014;2023-03-13T03:46:28;20.27;;;11.73;;
56161;SDS011;42045;52.986;6.014;2023-03-13T03:48:53;16.90;;;11.65;;
56161;SDS011;42045;52.986;6.014;2023-03-13T03:51:19;16.60;;;10.57;;
56161;SDS011;42045;52.986;6.014;2023-03-13T03:53:45;15.48;;;11.88;;
56161;SDS011;42045;52.986;6.014;2023-03-13T03:56:11;20.55;;;13.15;;
56161;SDS011;42045;52.986;6.014;2023-03-13T03:58:37;15.80;;;11.43;;
56161;SDS011;42045;52.986;6.014;2023-03-13T04:01:02;15.85;;;11.80;;
56161;SDS011;42045;52.986;6.014;2023-03-13T04:03:28;16.45;;;11.57;;
56161;SDS011;42045;52.986;6.014;2023-03-13T04:05:54;21.45;;;13.48;;
56161;SDS011;42045;52.986;6.014;2023-03-13T04:08:20;21.75;;;13.85;;
56161;SDS011;42045;52.986;6.014;2023-03-13T04:10:46;21.92;;;13.48;;
56161;SDS011;42045;52.986;6.014;2023-03-13T04:13:12;18.77;;;14.02;;
56161;SDS011;42045;52.986;6.014;2023-03-13T04:15:38;21.55;;;15.43;;
56161;SDS011;42045;52.986;6.014;2023-03-13T04:18:04;22.83;;;16.00;;
56161;SDS011;42045;52.986;6.014;2023-03-13T04:20:30;25.00;;;17.17;;
56161;SDS011;42045;52.986;6.014;2023-03-13T04:22:56;22.83;;;16.02;;
56161;SDS011;42045;52.986;6.014;2023-03-13T04:25:22;31.15;;;18.30;;
56161;SDS011;42045;52.986;6.014;2023-03-13T04:27:47;29.27;;;17.85;;
56161;SDS011;42045;52.986;6.014;2023-03-13T04:30:13;27.73;;;18.38;;
56161;SDS011;42045;52.986;6.014;2023-03-13T04:32:39;26.33;;;17.52;;
56161;SDS011;42045;52.986;6.014;2023-03-13T04:35:05;25.73;;;17.17;;
56161;SDS011;42045;52.986;6.014;2023-03-13T04:37:31;24.33;;;17.58;;
56161;SDS011;42045;52.986;6.014;2023-03-13T04:39:57;28.88;;;17.10;;
56161;SDS011;42045;52.986;6.014;2023-03-13T04:42:23;24.77;;;15.88;;
56161;SDS011;42045;52.986;6.014;2023-03-13T04:44:48;22.00;;;15.25;;
56161;SDS011;42045;52.986;6.014;2023-03-13T04:47:14;23.25;;;15.13;;
56161;SDS011;42045;52.986;6.014;2023-03-13T04:49:40;25.70;;;16.15;;
56161;SDS011;42045;52.986;6.014;2023-03-13T04:52:05;25.83;;;15.95;;
56161;SDS011;42045;52.986;6.014;2023-03-13T04:54:31;24.92;;;14.52;;
56161;SDS011;42045;52.986;6.014;2023-03-13T04:56:57;21.25;;;13.05;;
56161;SDS011;42045;52.986;6.014;2023-03-13T04:59:22;21.35;;;13.77;;
56161;SDS011;42045;52.986;6.014;2023-03-13T05:01:48;28.90;;;12.35;;
56161;SDS011;42045;52.986;6.014;2023-03-13T05:04:14;22.30;;;10.15;;
56161;SDS011;42045;52.986;6.014;2023-03-13T05:06:39;21.58;;;10.93;;
56161;SDS011;42045;52.986;6.014;2023-03-13T05:09:05;18.80;;;9.75;;
56161;SDS011;42045;52.986;6.014;2023-03-13T05:11:31;14.75;;;9.75;;
56161;SDS011;42045;52.986;6.014;2023-03-13T05:13:57;18.70;;;8.52;;
56161;SDS011;42045;52.986;6.014;2023-03-13T05:16:22;17.92;;;9.30;;
56161;SDS011;42045;52.986;6.014;2023-03-13T05:18:48;13.45;;;7.85;;
56161;SDS011;42045;52.986;6.014;2023-03-13T05:21:14;19.95;;;8.50;;
56161;SDS011;42045;52.986;6.014;2023-03-13T05:23:40;21.20;;;7.45;;
56161;SDS011;42045;52.986;6.014;2023-03-13T05:26:05;16.80;;;7.88;;
56161;SDS011;42045;52.986;6.014;2023-03-13T05:28:31;16.08;;;8.10;;
56161;SDS011;42045;52.986;6.014;2023-03-13T05:30:57;19.98;;;7.00;;
56161;SDS011;42045;52.986;6.014;2023-03-13T05:33:22;14.38;;;6.78;;
56161;SDS011;42045;52.986;6.014;2023-03-13T05:35:48;14.02;;;6.57;;
56161;SDS011;42045;52.986;6.014;2023-03-13T05:38:14;14.40;;;7.15;;
56161;SDS011;42045;52.986;6.014;2023-03-13T05:40:39;13.35;;;7.13;;
56161;SDS011;42045;52.986;6.014;2023-03-13T05:43:05;22.50;;;6.78;;
56161;SDS011;42045;52.986;6.014;2023-03-13T05:45:31;21.85;;;6.85;;
56161;SDS011;42045;52.986;6.014;2023-03-13T05:47:57;14.00;;;7.03;;
56161;SDS011;42045;52.986;6.014;2023-03-13T05:50:26;12.70;;;6.35;;
56161;SDS011;42045;52.986;6.014;2023-03-13T05:52:51;18.08;;;6.43;;
56161;SDS011;42045;52.986;6.014;2023-03-13T05:55:18;14.57;;;6.82;;
56161;SDS011;42045;52.986;6.014;2023-03-13T05:57:44;11.40;;;7.03;;
56161;SDS011;42045;52.986;6.014;2023-03-13T06:00:11;19.65;;;6.15;;
56161;SDS011;42045;52.986;6.014;2023-03-13T06:02:38;13.88;;;6.38;;
56161;SDS011;42045;52.986;6.014;2023-03-13T06:05:03;14.38;;;7.55;;
56161;SDS011;42045;52.986;6.014;2023-03-13T06:07:29;16.02;;;7.65;;
56161;SDS011;42045;52.986;6.014;2023-03-13T06:09:55;13.70;;;7.72;;
56161;SDS011;42045;52.986;6.014;2023-03-13T06:12:21;16.13;;;7.70;;
56161;SDS011;42045;52.986;6.014;2023-03-13T06:14:46;14.48;;;7.82;;
56161;SDS011;42045;52.986;6.014;2023-03-13T06:17:12;14.93;;;7.88;;
56161;SDS011;42045;52.986;6.014;2023-03-13T06:19:38;22.08;;;10.00;;
56161;SDS011;42045;52.986;6.014;2023-03-13T06:22:03;15.52;;;9.15;;
56161;SDS011;42045;52.986;6.014;2023-03-13T06:24:29;17.30;;;10.10;;
56161;SDS011;42045;52.986;6.014;2023-03-13T06:26:55;16.58;;;9.20;;
56161;SDS011;42045;52.986;6.014;2023-03-13T06:29:20;23.80;;;9.30;;
56161;SDS011;42045;52.986;6.014;2023-03-13T06:31:48;22.30;;;9.93;;
56161;SDS011;42045;52.986;6.014;2023-03-13T06:34:14;16.08;;;8.23;;
56161;SDS011;42045;52.986;6.014;2023-03-13T06:36:39;21.65;;;9.82;;
56161;SDS011;42045;52.986;6.014;2023-03-13T06:39:05;27.27;;;10.65;;
56161;SDS011;42045;52.986;6.014;2023-03-13T06:41:32;17.00;;;8.95;;
56161;SDS011;42045;52.986;6.014;2023-03-13T06:43:58;23.25;;;8.75;;
56161;SDS011;42045;52.986;6.014;2023-03-13T06:46:23;18.52;;;7.70;;
56161;SDS011;42045;52.986;6.014;2023-03-13T06:48:50;20.73;;;8.45;;
56161;SDS011;42045;52.986;6.014;2023-03-13T06:51:17;20.85;;;8.65;;
56161;SDS011;42045;52.986;6.014;2023-03-13T06:53:44;19.35;;;8.32;;
56161;SDS011;42045;52.986;6.014;2023-03-13T06:56:11;17.95;;;6.38;;
56161;SDS011;42045;52.986;6.014;2023-03-13T06:58:37;16.77;;;6.63;;
56161;SDS011;42045;52.986;6.014;2023-03-13T07:01:07;17.98;;;7.00;;
56161;SDS011;42045;52.986;6.014;2023-03-13T07:03:35;17.73;;;6.93;;
56161;SDS011;42045;52.986;6.014;2023-03-13T07:06:01;15.88;;;7.28;;
56161;SDS011;42045;52.986;6.014;2023-03-13T07:08:27;14.82;;;6.82;;
56161;SDS011;42045;52.986;6.014;2023-03-13T07:10:56;19.08;;;6.15;;
56161;SDS011;42045;52.986;6.014;2023-03-13T07:13:23;19.25;;;7.30;;
56161;SDS011;42045;52.986;6.014;2023-03-13T07:15:49;14.40;;;6.40;;
56161;SDS011;42045;52.986;6.014;2023-03-13T07:18:15;17.48;;;5.95;;
56161;SDS011;42045;52.986;6.014;2023-03-13T07:20:41;18.55;;;6.95;;
56161;SDS011;42045;52.986;6.014;2023-03-13T07:23:07;16.05;;;6.20;;
56161;SDS011;42045;52.986;6.014;2023-03-13T07:25:33;19.52;;;6.05;;
56161;SDS011;42045;52.986;6.014;2023-03-13T07:27:59;15.30;;;6.70;;
56161;SDS011;42045;52.986;6.014;2023-03-13T07:30:25;17.02;;;7.00;;
56161;SDS011;42045;52.986;6.014;2023-03-13T07:32:52;18.02;;;6.25;;
56161;SDS011;42045;52.986;6.014;2023-03-13T07:35:17;16.50;;;5.72;;
56161;SDS011;42045;52.986;6.014;2023-03-13T07:37:43;17.38;;;6.78;;
56161;SDS011;42045;52.986;6.014;2023-03-13T07:40:11;15.18;;;5.85;;
56161;SDS011;42045;52.986;6.014;2023-03-13T07:42:40;15.55;;;5.57;;
56161;SDS011;42045;52.986;6.014;2023-03-13T07:45:06;13.88;;;5.78;;
56161;SDS011;42045;52.986;6.014;2023-03-13T07:47:33;15.18;;;5.53;;
56161;SDS011;42045;52.986;6.014;2023-03-13T07:49:59;11.80;;;5.60;;
56161;SDS011;42045;52.986;6.014;2023-03-13T07:52:25;11.90;;;5.20;;
56161;SDS011;42045;52.986;6.014;2023-03-13T07:54:52;16.08;;;5.75;;
56161;SDS011;42045;52.986;6.014;2023-03-13T07:57:18;14.68;;;5.50;;
56161;SDS011;42045;52.986;6.014;2023-03-13T07:59:44;14.00;;;5.57;;
56161;SDS011;42045;52.986;6.014;2023-03-13T08:02:13;11.38;;;4.78;;
56161;SDS011;42045;52.986;6.014;2023-03-13T08:04:40;13.18;;;5.05;;
56161;SDS011;42045;52.986;6.014;2023-03-13T08:07:09;11.18;;;5.30;;
56161;SDS011;42045;52.986;6.014;2023-03-13T08:09:35;9.18;;;4.47;;
56161;SDS011;42045;52.986;6.014;2023-03-13T08:12:01;14.23;;;6.35;;
56161;SDS011;42045;52.986;6.014;2023-03-13T08:14:27;13.85;;;4.43;;
56161;SDS011;42045;52.986;6.014;2023-03-13T08:16:53;11.32;;;5.10;;
56161;SDS011;42045;52.986;6.014;2023-03-13T08:19:18;10.98;;;4.93;;
56161;SDS011;42045;52.986;6.014;2023-03-13T08:21:44;12.45;;;5.65;;
56161;SDS011;42045;52.986;6.014;2023-03-13T08:24:10;13.02;;;6.47;;
56161;SDS011;42045;52.986;6.014;2023-03-13T08:26:37;10.27;;;4.20;;
56161;SDS011;42045;52.986;6.014;2023-03-13T08:29:08;14.65;;;6.40;;
56161;SDS011;42045;52.986;6.014;2023-03-13T08:34:10;11.32;;;7.28;;
56161;SDS011;42045;52.986;6.014;2023-03-13T08:36:36;10.65;;;4.47;;
56161;SDS011;42045;52.986;6.014;2023-03-13T08:39:03;9.25;;;3.30;;
56161;SDS011;42045;52.986;6.014;2023-03-13T08:41:32;10.52;;;3.63;;
56161;SDS011;42045;52.986;6.014;2023-03-13T08:44:00;10.73;;;4.97;;
56161;SDS011;42045;52.986;6.014;2023-03-13T08:46:31;8.32;;;4.50;;
56161;SDS011;42045;52.986;6.014;2023-03-13T08:48:58;7.72;;;3.35;;
56161;SDS011;42045;52.986;6.014;2023-03-13T08:51:25;11.27;;;4.00;;
56161;SDS011;42045;52.986;6.014;2023-03-13T08:53:52;10.43;;;3.33;;
56161;SDS011;42045;52.986;6.014;2023-03-13T08:56:21;14.48;;;7.72;;
56161;SDS011;42045;52.986;6.014;2023-03-13T08:58:49;13.32;;;3.95;;
56161;SDS011;42045;52.986;6.014;2023-03-13T09:01:19;16.17;;;8.52;;
56161;SDS011;42045;52.986;6.014;2023-03-13T09:03:47;16.23;;;5.07;;
56161;SDS011;42045;52.986;6.014;2023-03-13T09:06:12;12.10;;;3.88;;
56161;SDS011;42045;52.986;6.014;2023-03-13T09:08:38;16.55;;;7.18;;
56161;SDS011;42045;52.986;6.014;2023-03-13T09:11:06;19.27;;;9.73;;
56161;SDS011;42045;52.986;6.014;2023-03-13T09:13:35;25.92;;;10.00;;
56161;SDS011;42045;52.986;6.014;2023-03-13T09:16:03;15.38;;;7.18;;
56161;SDS011;42045;52.986;6.014;2023-03-13T09:18:31;24.42;;;8.23;;
56161;SDS011;42045;52.986;6.014;2023-03-13T09:20:57;23.40;;;9.25;;
56161;SDS011;42045;52.986;6.014;2023-03-13T09:23:23;26.58;;;15.60;;
56161;SDS011;42045;52.986;6.014;2023-03-13T09:25:51;35.75;;;20.10;;
56161;SDS011;42045;52.986;6.014;2023-03-13T09:28:17;42.33;;;23.55;;
56161;SDS011;42045;52.986;6.014;2023-03-13T09:30:43;32.28;;;18.75;;
56161;SDS011;42045;52.986;6.014;2023-03-13T09:33:09;18.42;;;8.85;;
56161;SDS011;42045;52.986;6.014;2023-03-13T09:35:36;20.75;;;7.22;;
56161;SDS011;42045;52.986;6.014;2023-03-13T09:38:03;14.85;;;6.40;;
56161;SDS011;42045;52.986;6.014;2023-03-13T09:40:29;15.65;;;4.10;;
56161;SDS011;42045;52.986;6.014;2023-03-13T09:43:01;16.05;;;5.55;;
56161;SDS011;42045;52.986;6.014;2023-03-13T09:48:03;13.48;;;3.80;;
56161;SDS011;42045;52.986;6.014;2023-03-13T09:50:45;10.95;;;4.05;;
56161;SDS011;42045;52.986;6.014;2023-03-13T09:53:23;15.45;;;4.20;;
56161;SDS011;42045;52.986;6.014;2023-03-13T09:55:58;17.77;;;5.88;;
56161;SDS011;42045;52.986;6.014;2023-03-13T09:58:37;16.90;;;4.68;;
56161;SDS011;42045;52.986;6.014;2023-03-13T10:01:11;19.98;;;5.20;;
56161;SDS011;42045;52.986;6.014;2023-03-13T10:03:42;16.83;;;4.82;;
56161;SDS011;42045;52.986;6.014;2023-03-13T10:06:37;17.90;;;6.10;;
56161;SDS011;42045;52.986;6.014;2023-03-13T10:09:17;20.35;;;4.97;;
56161;SDS011;42045;52.986;6.014;2023-03-13T10:14:42;22.52;;;5.53;;
56161;SDS011;42045;52.986;6.014;2023-03-13T10:17:30;20.30;;;5.07;;
56161;SDS011;42045;52.986;6.014;2023-03-13T10:20:10;21.45;;;5.13;;
56161;SDS011;42045;52.986;6.014;2023-03-13T10:22:58;15.88;;;4.47;;
56161;SDS011;42045;52.986;6.014;2023-03-13T10:25:31;20.23;;;6.03;;
56161;SDS011;42045;52.986;6.014;2023-03-13T10:27:58;21.05;;;5.82;;
56161;SDS011;42045;52.986;6.014;2023-03-13T10:32:53;20.92;;;6.80;;
56161;SDS011;42045;52.986;6.014;2023-03-13T10:35:23;19.85;;;5.75;;
56161;SDS011;42045;52.986;6.014;2023-03-13T10:38:03;25.77;;;7.38;;
56161;SDS011;42045;52.986;6.014;2023-03-13T10:40:34;24.05;;;6.18;;
56161;SDS011;42045;52.986;6.014;2023-03-13T10:43:04;26.20;;;8.77;;
56161;SDS011;42045;52.986;6.014;2023-03-13T10:45:36;18.92;;;6.38;;
56161;SDS011;42045;52.986;6.014;2023-03-13T10:48:03;19.38;;;5.18;;
56161;SDS011;42045;52.986;6.014;2023-03-13T10:50:37;18.65;;;5.63;;
56161;SDS011;42045;52.986;6.014;2023-03-13T10:53:16;23.05;;;7.00;;
56161;SDS011;42045;52.986;6.014;2023-03-13T10:55:44;13.85;;;5.20;;
56161;SDS011;42045;52.986;6.014;2023-03-13T10:58:15;19.00;;;4.75;;
56161;SDS011;42045;52.986;6.014;2023-03-13T11:03:47;20.60;;;6.63;;
56161;SDS011;42045;52.986;6.014;2023-03-13T11:06:32;20.52;;;5.57;;
56161;SDS011;42045;52.986;6.014;2023-03-13T11:09:14;23.63;;;6.80;;
56161;SDS011;42045;52.986;6.014;2023-03-13T11:14:18;21.92;;;5.28;;
56161;SDS011;42045;52.986;6.014;2023-03-13T11:16:46;15.63;;;5.78;;
56161;SDS011;42045;52.986;6.014;2023-03-13T11:33:04;14.10;;;4.93;;
56161;SDS011;42045;52.986;6.014;2023-03-13T11:38:26;14.60;;;4.93;;
56161;SDS011;42045;52.986;6.014;2023-03-13T11:46:31;16.10;;;5.30;;
56161;SDS011;42045;52.986;6.014;2023-03-13T11:51:52;14.30;;;5.25;;
56161;SDS011;42045;52.986;6.014;2023-03-13T11:57:13;19.88;;;5.88;;
56161;SDS011;42045;52.986;6.014;2023-03-13T12:02:20;17.52;;;5.43;;
56161;SDS011;42045;52.986;6.014;2023-03-13T12:05:02;21.08;;;6.35;;
56161;SDS011;42045;52.986;6.014;2023-03-13T12:10:17;21.20;;;7.10;;
56161;SDS011;42045;52.986;6.014;2023-03-13T12:13:00;16.77;;;6.43;;
56161;SDS011;42045;52.986;6.014;2023-03-13T12:15:55;24.40;;;6.22;;
56161;SDS011;42045;52.986;6.014;2023-03-13T12:26:16;20.70;;;5.40;;
56161;SDS011;42045;52.986;6.014;2023-03-13T12:34:08;19.52;;;5.13;;
56161;SDS011;42045;52.986;6.014;2023-03-13T12:42:09;21.63;;;5.07;;
56161;SDS011;42045;52.986;6.014;2023-03-13T12:44:47;24.15;;;5.30;;
56161;SDS011;42045;52.986;6.014;2023-03-13T12:49:58;31.55;;;6.15;;
56161;SDS011;42045;52.986;6.014;2023-03-13T12:55:19;22.85;;;5.47;;
56161;SDS011;42045;52.986;6.014;2023-03-13T13:00:51;20.95;;;6.07;;
56161;SDS011;42045;52.986;6.014;2023-03-13T13:08:26;22.30;;;5.38;;
56161;SDS011;42045;52.986;6.014;2023-03-13T13:17:10;26.50;;;6.60;;
56161;SDS011;42045;52.986;6.014;2023-03-13T13:19:52;23.55;;;7.10;;
56161;SDS011;42045;52.986;6.014;2023-03-13T13:27:48;24.27;;;6.70;;
56161;SDS011;42045;52.986;6.014;2023-03-13T13:37:52;27.48;;;5.80;;
56161;SDS011;42045;52.986;6.014;2023-03-13T13:40:37;29.08;;;5.93;;
56161;SDS011;42045;52.986;6.014;2023-03-13T13:43:03;35.67;;;6.50;;
56161;SDS011;42045;52.986;6.014;2023-03-13T13:45:33;29.65;;;7.00;;
56161;SDS011;42045;52.986;6.014;2023-03-13T13:53:45;36.45;;;7.53;;
56161;SDS011;42045;52.986;6.014;2023-03-13T14:01:46;22.50;;;4.97;;
56161;SDS011;42045;52.986;6.014;2023-03-13T14:04:36;30.83;;;7.13;;
56161;SDS011;42045;52.986;6.014;2023-03-13T14:07:09;33.38;;;5.80;;
56161;SDS011;42045;52.986;6.014;2023-03-13T14:12:26;34.58;;;6.85;;
56161;SDS011;42045;52.986;6.014;2023-03-13T14:15:14;32.40;;;7.00;;
56161;SDS011;42045;52.986;6.014;2023-03-13T14:17:49;21.08;;;6.50;;
56161;SDS011;42045;52.986;6.014;2023-03-13T14:20:21;45.28;;;8.85;;
56161;SDS011;42045;52.986;6.014;2023-03-13T14:23:08;47.17;;;7.75;;
56161;SDS011;42045;52.986;6.014;2023-03-13T14:25:42;48.92;;;7.80;;
56161;SDS011;42045;52.986;6.014;2023-03-13T14:28:19;38.63;;;7.68;;
56161;SDS011;42045;52.986;6.014;2023-03-13T14:30:46;29.58;;;6.97;;
56161;SDS011;42045;52.986;6.014;2023-03-13T14:33:13;66.85;;;13.10;;
56161;SDS011;42045;52.986;6.014;2023-03-13T14:35:40;38.08;;;10.10;;
56161;SDS011;42045;52.986;6.014;2023-03-13T14:38:06;57.33;;;12.23;;
56161;SDS011;42045;52.986;6.014;2023-03-13T14:40:39;40.60;;;9.63;;
56161;SDS011;42045;52.986;6.014;2023-03-13T14:43:13;32.17;;;7.22;;
56161;SDS011;42045;52.986;6.014;2023-03-13T14:45:47;27.90;;;6.93;;
56161;SDS011;42045;52.986;6.014;2023-03-13T14:50:39;30.85;;;7.85;;
56161;SDS011;42045;52.986;6.014;2023-03-13T14:53:11;31.92;;;9.27;;
56161;SDS011;42045;52.986;6.014;2023-03-13T14:55:41;30.92;;;7.63;;
56161;SDS011;42045;52.986;6.014;2023-03-13T15:00:53;34.33;;;7.10;;
56161;SDS011;42045;52.986;6.014;2023-03-13T15:03:26;54.00;;;9.27;;
56161;SDS011;42045;52.986;6.014;2023-03-13T15:06:04;34.58;;;9.55;;
56161;SDS011;42045;52.986;6.014;2023-03-13T15:08:39;34.22;;;8.98;;
56161;SDS011;42045;52.986;6.014;2023-03-13T15:11:21;37.15;;;7.82;;
56161;SDS011;42045;52.986;6.014;2023-03-13T15:13:52;36.00;;;8.20;;
56161;SDS011;42045;52.986;6.014;2023-03-13T15:16:20;32.60;;;6.93;;
56161;SDS011;42045;52.986;6.014;2023-03-13T15:18:47;33.50;;;7.18;;
56161;SDS011;42045;52.986;6.014;2023-03-13T15:23:47;35.25;;;6.95;;
56161;SDS011;42045;52.986;6.014;2023-03-13T15:26:34;29.10;;;6.82;;
56161;SDS011;42045;52.986;6.014;2023-03-13T15:29:00;33.80;;;7.28;;
56161;SDS011;42045;52.986;6.014;2023-03-13T15:31:26;27.52;;;8.80;;
56161;SDS011;42045;52.986;6.014;2023-03-13T15:33:54;38.38;;;7.43;;
56161;SDS011;42045;52.986;6.014;2023-03-13T15:36:23;35.45;;;7.85;;
56161;SDS011;42045;52.986;6.014;2023-03-13T15:38:50;52.05;;;8.60;;
56161;SDS011;42045;52.986;6.014;2023-03-13T15:41:16;41.42;;;8.95;;
56161;SDS011;42045;52.986;6.014;2023-03-13T15:43:42;29.85;;;6.55;;
56161;SDS011;42045;52.986;6.014;2023-03-13T15:46:10;30.30;;;6.60;;
56161;SDS011;42045;52.986;6.014;2023-03-13T15:48:39;55.10;;;8.65;;
56161;SDS011;42045;52.986;6.014;2023-03-13T15:51:08;45.50;;;6.80;;
56161;SDS011;42045;52.986;6.014;2023-03-13T15:53:37;30.63;;;6.05;;
56161;SDS011;42045;52.986;6.014;2023-03-13T15:56:05;32.65;;;6.53;;
56161;SDS011;42045;52.986;6.014;2023-03-13T15:58:43;34.10;;;7.55;;
56161;SDS011;42045;52.986;6.014;2023-03-13T16:01:10;36.15;;;6.85;;
56161;SDS011;42045;52.986;6.014;2023-03-13T16:03:37;30.90;;;6.75;;
56161;SDS011;42045;52.986;6.014;2023-03-13T16:06:09;36.78;;;7.97;;
56161;SDS011;42045;52.986;6.014;2023-03-13T16:08:41;29.70;;;6.45;;
56161;SDS011;42045;52.986;6.014;2023-03-13T16:11:08;35.90;;;6.80;;
56161;SDS011;42045;52.986;6.014;2023-03-13T16:13:36;52.53;;;9.20;;
56161;SDS011;42045;52.986;6.014;2023-03-13T16:16:04;34.58;;;6.53;;
56161;SDS011;42045;52.986;6.014;2023-03-13T16:18:41;39.05;;;13.75;;
56161;SDS011;42045;52.986;6.014;2023-03-13T16:21:07;37.45;;;7.18;;
56161;SDS011;42045;52.986;6.014;2023-03-13T16:23:36;33.05;;;8.73;;
56161;SDS011;42045;52.986;6.014;2023-03-13T16:26:01;55.80;;;9.63;;
56161;SDS011;42045;52.986;6.014;2023-03-13T16:28:27;29.98;;;7.22;;
56161;SDS011;42045;52.986;6.014;2023-03-13T16:30:53;32.08;;;8.05;;
56161;SDS011;42045;52.986;6.014;2023-03-13T16:33:20;28.17;;;6.22;;
56161;SDS011;42045;52.986;6.014;2023-03-13T16:35:46;28.77;;;8.57;;
56161;SDS011;42045;52.986;6.014;2023-03-13T16:38:11;27.58;;;7.03;;
56161;SDS011;42045;52.986;6.014;2023-03-13T16:40:37;38.53;;;8.10;;
56161;SDS011;42045;52.986;6.014;2023-03-13T16:43:02;39.00;;;7.18;;
56161;SDS011;42045;52.986;6.014;2023-03-13T16:45:28;34.83;;;8.77;;
56161;SDS011;42045;52.986;6.014;2023-03-13T16:47:54;33.30;;;8.65;;
56161;SDS011;42045;52.986;6.014;2023-03-13T16:52:45;31.13;;;7.82;;
56161;SDS011;42045;52.986;6.014;2023-03-13T16:55:11;35.78;;;7.65;;
56161;SDS011;42045;52.986;6.014;2023-03-13T16:57:36;34.03;;;7.45;;
56161;SDS011;42045;52.986;6.014;2023-03-13T17:00:04;28.65;;;6.38;;